• Join FlightAware (Why Join?)
  • Login
  • US Flag 
08:25AM EDT


 

Airport Tracker/Info


-or-


 

Live Flight TrackerFlight Track Log ✈ AAL1326 ✈ 06-May-2013 ✈ KORD - KFLL

Flight Track Log - Related Links

Times and Time Zones

All times are in EDT time to prevent confusion due to time zone crossing. See the AAL1326 flight status page for this flight to view local times or setup timezone preferences in your user account.

Time Position Orientation Groundspeed Altitude Reporting Facility
EDT Latitude Longitude Course Direction KTS MPH feet Rate Location/Type
06:55PM 41.9667 -87.8500 233° Southwest 183 211 2,600  Level Chicago TRACON
06:57PM 41.6433 -87.7025 180° South  Level Estimated
06:57PM 41.8095 -87.8833 180° South  Level FlightAware Approximate
06:57PM 41.8606 -87.7917 180° South 254 292 5,000  Level Chicago Center
06:58PM 41.5304 -87.6349 176° South  Level Estimated
06:58PM 41.7864 -87.7875 178° South 266 306 5,100  Level Chicago Center
06:59PM 41.4175 -87.5676 180° South  Level Estimated
07:00PM 41.3046 -87.5005 180° South  Level Estimated
07:00PM 41.6303 -87.6937 180° South  Level Estimated
07:00PM 41.6167 -87.8292 180° South 289 333 10,500  Level Chicago Center
07:01PM 41.2294 -87.6311 233° Southwest  Level FlightAware Approximate
07:02PM 41.4552 -87.8571 187° South  Level FlightAware Approximate
07:02PM 41.4314 -87.8728 187° South 358 412 15,300  Level Chicago Center
07:03PM 41.3256 -87.8842 185° South 374 430 18,400 2,580 Climbing Chicago Center
07:04PM 41.2175 -87.8925 183° South 383 441 20,700 2,280 Climbing Chicago Center
07:05PM 41.1056 -87.8875 178° South 396 456 23,200 2,160 Climbing Chicago Center
07:06PM 40.9644 -87.8822 178° South 418 481 25,200 1,800 Climbing Chicago Center
07:07PM 40.8406 -87.8786 179° South 441 507 27,000 1,680 Climbing Chicago Center
07:08PM 40.7156 -87.8756 179° South 449 517 28,700 1,680 Climbing Chicago Center
07:10PM 40.5056 -87.8700 179° South 459 528 31,600 1,740 Climbing Indianapolis Center
07:11PM 40.4625 -87.8675 177° South 455 524 32,300 1,620 Climbing Chicago Center
07:12PM 40.3117 -87.8633 179° South 454 522 34,000 1,020 Climbing Chicago Center
07:12PM 40.2556 -87.8608 178° South 451 519 34,000  Level Indianapolis Center
07:13PM 40.1050 -87.8542 178° South 452 520 34,000  Level Indianapolis Center
07:14PM 39.9797 -87.8483 178° South 453 521 34,000 240 Level Indianapolis Center
07:17PM 39.6808 -87.8333 178° South 454 522 35,000 300 Climbing Chicago Center
07:17PM 39.6036 -87.8317 179° South 453 521 35,000 60 Level Indianapolis Center
07:18PM 39.4797 -87.8253 178° South 450 518 35,100 780 Climbing Indianapolis Center
07:19PM 39.3378 -87.7856 168° South 449 517 36,700 600 Climbing Indianapolis Center
07:21PM 39.1017 -87.7003 164° South 439 505 37,000 60 Climbing Indianapolis Center
07:22PM 38.9778 -87.6864 175° South 444 511 37,000  Level Indianapolis Center
07:23PM 38.8561 -87.6714 175° South 442 509 37,000  Level Indianapolis Center
07:25PM 38.7322 -87.6558 174° South 446 513 37,000  Level Indianapolis Center
07:26PM 38.5814 -87.6378 175° South 452 520 37,000  Level Indianapolis Center
07:27PM 38.4583 -87.6144 172° South 449 517 37,000  Level Indianapolis Center
07:28PM 38.3422 -87.5608 160° South 446 513 37,000  Level Indianapolis Center
07:29PM 38.2283 -87.5050 159° South 441 507 37,000  Level Indianapolis Center
07:30PM 38.1144 -87.4519 160° South 440 506 37,000  Level Indianapolis Center
07:31PM 38.0003 -87.3975 159° South 441 507 37,000  Level Indianapolis Center
07:32PM 37.8597 -87.3306 159° South 450 518 37,000  Level Indianapolis Center
07:33PM 37.7439 -87.2769 160° South 460 529 37,000  Level Indianapolis Center
07:34PM 37.5350 -87.1794 160° South 455 524 37,000  Level Memphis Center
07:35PM 37.4128 -87.1244 160° South 469 540 37,000  Level Memphis Center
07:36PM 37.2883 -87.0669 160° South 474 545 37,000  Level Memphis Center
07:37PM 37.1658 -87.0069 159° South 474 545 37,000  Level Memphis Center
07:38PM 37.0433 -86.9497 160° South 474 545 37,000  Level Memphis Center
07:39PM 36.9189 -86.8953 161° South 474 545 37,000  Level Memphis Center
07:40PM 36.7986 -86.8383 159° South 474 545 37,000  Level Memphis Center
07:41PM 36.6761 -86.7817 160° South 474 545 37,000  Level Memphis Center
07:42PM 36.5664 -86.7322 160° South 474 545 37,000 -780 Level Memphis Center
07:44PM 36.3594 -86.6394 160° South 470 541 35,000 -1,020 Descending Indianapolis Center
07:44PM 36.3169 -86.6172 157° South 479 551 35,000  Level Memphis Center
07:45PM 36.1839 -86.5589 161° South 474 545 35,000  Level Memphis Center
07:46PM 36.0569 -86.5033 161° South 474 545 35,000  Level Memphis Center
07:47PM 35.9322 -86.4475 160° South 479 551 35,000  Level Memphis Center
07:49PM 35.7050 -86.3481 160° South 484 557 35,000  Level Atlanta Center
07:50PM 35.5808 -86.2936 160° South 477 549 35,000  Level Atlanta Center
07:51PM 35.4711 -86.2419 159° South 477 549 35,000  Level Atlanta Center
07:53PM 35.3402 -86.1639 161° South  Level FlightAware Approximate
07:53PM 35.2206 -86.1336 161° South 477 549 35,000  Level Atlanta Center
07:54PM 35.0900 -86.0744 160° South 470 541 35,000  Level Atlanta Center
07:55PM 34.9678 -86.0233 161° South 470 541 35,000  Level Atlanta Center
07:56PM 34.8456 -85.9672 159° South 464 534 35,000  Level Atlanta Center
07:57PM 34.7233 -85.9114 159° South 464 534 35,000  Level Atlanta Center
07:59PM 34.5911 -85.8372 162° South  Level FlightAware Approximate
07:59PM 34.4725 -85.8100 162° South 464 534 35,000  Level Atlanta Center
08:00PM 34.3625 -85.7625 160° South 464 534 35,000  Level Atlanta Center
08:02PM 34.2282 -85.6962 158° South  Level FlightAware Approximate
08:02PM 34.1133 -85.6572 158° South 469 540 35,000  Level Atlanta Center
08:03PM 33.9908 -85.6022 160° South 469 540 35,000  Level Atlanta Center
08:04PM 33.8644 -85.5497 161° South 469 540 35,000  Level Atlanta Center
08:05PM 33.7378 -85.4953 160° South 479 551 35,000  Level Atlanta Center
08:06PM 33.6131 -85.4456 162° South 479 551 35,000  Level Atlanta Center
08:07PM 33.4864 -85.3914 160° South 479 551 35,000  Level Atlanta Center
08:08PM 33.3575 -85.3369 161° South 484 557 35,000  Level Atlanta Center
08:09PM 33.2181 -85.2803 161° South 479 551 35,000  Level Atlanta Center
08:10PM 33.0914 -85.2289 161° South 484 557 35,000  Level Atlanta Center
08:11PM 32.9644 -85.1753 160° South 484 557 35,000  Level Atlanta Center
08:12PM 32.8356 -85.1364 166° South 484 557 35,000  Level Atlanta Center
08:13PM 32.7064 -85.0881 163° South 478 550 35,000  Level Atlanta Center
08:15PM 32.5662 -85.0386 164° South  Level FlightAware Approximate
08:15PM 32.4547 -85.0014 164° South 472 543 35,000  Level Atlanta Center
08:17PM 32.3139 -84.9545 164° South  Level FlightAware Approximate
08:17PM 32.2131 -84.9225 164° South 472 543 35,000  Level Atlanta Center
08:18PM 32.0881 -84.8822 165° South 472 543 35,000  Level Atlanta Center
08:21PM 31.7642 -84.7742 164° South 486 559 35,000  Level Jacksonville Center
08:22PM 31.6375 -84.7325 164° South 472 543 35,000  Level Jacksonville Center
08:23PM 31.5108 -84.6908 164° South 472 543 35,000  Level Jacksonville Center
08:25PM 31.3115 -84.6149 164° South  Level FlightAware Approximate
08:26PM 31.1344 -84.5647 164° South 477 549 35,000  Level Jacksonville Center
08:28PM 30.8789 -84.4806 164° South 472 543 35,000  Level Jacksonville Center
08:29PM 30.7519 -84.4372 164° South 472 543 35,000  Level Jacksonville Center
08:30PM 30.6272 -84.3942 163° South 472 543 35,000  Level Jacksonville Center
08:31PM 30.5150 -84.3489 161° South 472 543 35,000  Level Jacksonville Center
08:32PM 30.3989 -84.2725 150° Southeast 477 549 35,000 -60 Level Jacksonville Center
08:33PM 30.2703 -84.1889 151° Southeast 477 549 34,900 -60 Descending Jacksonville Center
08:34PM 30.1667 -84.1203 150° Southeast 477 549 34,900  Level Jacksonville Center
08:36PM 29.9364 -83.9689 150° Southeast 477 549 34,900  Level Jacksonville Center
08:37PM 29.8219 -83.8956 151° Southeast 477 549 34,900  Level Jacksonville Center
08:38PM 29.7142 -83.8133 146° Southeast 477 549 35,000  Climbing Jacksonville Center
08:40PM 29.4919 -83.6467 147° Southeast 478 550 35,000  Level Jacksonville Center
08:41PM 29.3817 -83.5647 147° Southeast 478 550 35,000  Level Jacksonville Center
08:42PM 29.2714 -83.4806 146° Southeast 478 550 35,000  Level Jacksonville Center
08:43PM 29.1633 -83.3992 147° Southeast 478 550 35,000 -60 Level Jacksonville Center
08:44PM 29.0550 -83.3200 147° Southeast 473 544 34,900  Descending Jacksonville Center
08:45PM 28.9489 -83.2389 146° Southeast 473 544 35,000  Climbing Jacksonville Center
08:46PM 28.8364 -83.1581 148° Southeast 478 550 34,900 -60 Descending Jacksonville Center
08:48PM 28.6056 -82.9886 147° Southeast 452 520 34,900  Level Miami Center
08:49PM 28.4983 -82.9097 147° Southeast 457 526 35,000  Climbing Miami Center
08:50PM 28.3911 -82.8331 148° Southeast 462 532 35,000  Level Miami Center
08:51PM 28.2839 -82.7519 146° Southeast 462 532 35,000  Level Miami Center
08:53PM 28.0653 -82.5900 147° Southeast 469 540 35,000 -60 Level Miami Center
08:54PM 27.9533 -82.5164 150° Southeast 469 540 34,900 -180 Descending Miami Center
08:55PM 27.8383 -82.4708 161° South 456 525 34,700 -540 Descending Miami Center
08:56PM 27.7150 -82.4225 161° South 451 519 33,900 -960 Descending Miami Center
08:57PM 27.5833 -82.3761 163° South 457 526 32,800 -1,020 Descending Miami Center
08:58PM 27.4619 -82.3306 162° South 457 526 31,900 -900 Descending Miami Center
08:59PM 27.3364 -82.2825 161° South 463 533 31,000 -1,020 Descending Miami Center
09:01PM 27.1200 -82.1022 143° Southeast 495 570 28,900 -1,080 Descending Miami Center
09:02PM 27.0169 -82.0019 139° Southeast 495 570 27,900 -1,500 Descending Miami Center
09:04PM 26.8718 -81.8534 142° Southeast  Level FlightAware Approximate
09:06PM 26.6225 -81.6364 121° Southeast 455 524 21,500  Level Miami Center
09:07PM 26.5422 -81.5378 132° Southeast 430 495 19,500 -2,040 Descending Miami Center
09:08PM 26.4719 -81.4492 132° Southeast 413 475 17,500 -2,220 Descending Miami Center
09:09PM 26.3997 -81.3536 130° Southeast 413 475 15,100 -2,340 Descending Miami Center
09:10PM 26.3294 -81.2583 129° Southeast 408 470 12,900 -2,220 Descending Miami Center
09:11PM 26.2565 -81.2502 121° Southeast  Level FlightAware Approximate
09:11PM 26.2611 -81.1725 132° Southeast 393 452 10,700  Level Miami Center
09:12PM 26.2086 -81.1058 131° Southeast 326 375 10,300 -540 Descending Miami Center
09:12PM 26.1986 -81.0914 128° Southeast 366 421 10,200 -1,140 Descending Miami Center
09:13PM 26.1464 -81.0247 131° Southeast 298 343 9,100 -1,140 Descending Miami Center
09:14PM 26.1006 -80.9447 123° Southeast 304 350 8,000 -720 Descending Miami Center
09:15PM 26.1050 -80.8569 87° East 277 319 7,600 -420 Descending Miami Center
09:16PM 26.1097 -80.7575 87° East 287 330 7,200 -660 Descending Miami Center
09:17PM 26.1139 -80.6883 86° East 288 331 6,500 -540 Descending Miami Center
09:18PM 26.1208 -80.5775 86° East 270 311 6,100 -180 Descending Miami Center
09:20PM 26.1331 -80.4228 85° East 271 312 6,000  Descending Miami Center
09:21PM 26.1372 -80.3350 87° East 280 322 6,100  Climbing Miami Center
09:22PM 26.1436 -80.2358 86° East 286 329 6,000 -600 Descending Miami Center
09:23PM 26.1472 -80.1686 87° East 274 315 5,000 -1,260 Descending Miami Center
09:24PM 26.1492 -80.0808 89° East 273 314 3,700 -1,260 Descending Miami Center
09:25PM 26.1469 -79.9997 92° East 260 299 2,500 -1,200 Descending Miami Center